sensor_id;sensor_type;location;lat;lon;timestamp;temperature;humidity
62575;DHT22;53112;45.602;11.904;2022-12-10T00:01:32;10.30;74.40
62575;DHT22;53112;45.602;11.904;2022-12-10T00:03:59;10.10;74.70
62575;DHT22;53112;45.602;11.904;2022-12-10T00:06:28;10.20;74.80
62575;DHT22;53112;45.602;11.904;2022-12-10T00:08:54;10.10;75.30
62575;DHT22;53112;45.602;11.904;2022-12-10T00:11:22;10.20;74.80
62575;DHT22;53112;45.602;11.904;2022-12-10T00:13:49;10.10;75.60
62575;DHT22;53112;45.602;11.904;2022-12-10T00:16:17;9.90;75.70
62575;DHT22;53112;45.602;11.904;2022-12-10T00:18:44;9.80;76.40
62575;DHT22;53112;45.602;11.904;2022-12-10T00:21:16;9.90;76.00
62575;DHT22;53112;45.602;11.904;2022-12-10T00:23:44;10.30;75.60
62575;DHT22;53112;45.602;11.904;2022-12-10T00:28:41;10.40;74.70
62575;DHT22;53112;45.602;11.904;2022-12-10T00:31:22;10.30;74.60
62575;DHT22;53112;45.602;11.904;2022-12-10T00:33:49;10.50;74.60
62575;DHT22;53112;45.602;11.904;2022-12-10T00:36:31;10.60;74.00
62575;DHT22;53112;45.602;11.904;2022-12-10T00:38:58;10.40;73.90
62575;DHT22;53112;45.602;11.904;2022-12-10T00:41:24;10.40;74.30
62575;DHT22;53112;45.602;11.904;2022-12-10T00:43:50;10.40;74.20
62575;DHT22;53112;45.602;11.904;2022-12-10T00:46:17;10.40;74.00
62575;DHT22;53112;45.602;11.904;2022-12-10T00:48:44;9.90;75.40
62575;DHT22;53112;45.602;11.904;2022-12-10T00:51:16;10.00;75.60
62575;DHT22;53112;45.602;11.904;2022-12-10T00:53:44;10.10;75.10
62575;DHT22;53112;45.602;11.904;2022-12-10T00:56:12;9.70;76.30
62575;DHT22;53112;45.602;11.904;2022-12-10T00:58:39;9.70;76.50
62575;DHT22;53112;45.602;11.904;2022-12-10T01:01:30;10.10;76.10
62575;DHT22;53112;45.602;11.904;2022-12-10T01:04:00;10.30;75.00
62575;DHT22;53112;45.602;11.904;2022-12-10T01:06:32;10.10;74.80
62575;DHT22;53112;45.602;11.904;2022-12-10T01:09:01;9.90;75.70
62575;DHT22;53112;45.602;11.904;2022-12-10T01:11:30;9.90;76.00
62575;DHT22;53112;45.602;11.904;2022-12-10T01:13:57;10.10;75.70
62575;DHT22;53112;45.602;11.904;2022-12-10T01:16:23;10.40;74.70
62575;DHT22;53112;45.602;11.904;2022-12-10T01:18:52;10.00;74.80
62575;DHT22;53112;45.602;11.904;2022-12-10T01:21:19;9.90;75.90
62575;DHT22;53112;45.602;11.904;2022-12-10T01:23:48;9.90;76.10
62575;DHT22;53112;45.602;11.904;2022-12-10T01:26:22;9.90;75.80
62575;DHT22;53112;45.602;11.904;2022-12-10T01:28:49;10.00;75.70
62575;DHT22;53112;45.602;11.904;2022-12-10T01:31:27;9.90;76.10
62575;DHT22;53112;45.602;11.904;2022-12-10T01:33:54;10.10;75.60
62575;DHT22;53112;45.602;11.904;2022-12-10T01:36:35;10.00;75.20
62575;DHT22;53112;45.602;11.904;2022-12-10T01:39:04;10.00;75.50
62575;DHT22;53112;45.602;11.904;2022-12-10T01:41:34;9.90;76.30
62575;DHT22;53112;45.602;11.904;2022-12-10T01:44:05;10.20;75.90
62575;DHT22;53112;45.602;11.904;2022-12-10T01:46:51;10.30;74.40
62575;DHT22;53112;45.602;11.904;2022-12-10T01:49:36;10.50;73.80
62575;DHT22;53112;45.602;11.904;2022-12-10T01:52:05;10.50;74.00
62575;DHT22;53112;45.602;11.904;2022-12-10T01:54:35;10.60;73.80
62575;DHT22;53112;45.602;11.904;2022-12-10T01:57:14;10.60;73.40
62575;DHT22;53112;45.602;11.904;2022-12-10T01:59:41;10.50;73.70
62575;DHT22;53112;45.602;11.904;2022-12-10T02:02:40;10.50;74.20
62575;DHT22;53112;45.602;11.904;2022-12-10T02:05:36;10.60;73.50
62575;DHT22;53112;45.602;11.904;2022-12-10T02:08:05;10.70;73.40
62575;DHT22;53112;45.602;11.904;2022-12-10T02:13:42;10.80;73.20
62575;DHT22;53112;45.602;11.904;2022-12-10T02:16:36;10.50;73.10
62575;DHT22;53112;45.602;11.904;2022-12-10T02:22:01;10.60;73.60
62575;DHT22;53112;45.602;11.904;2022-12-10T02:24:30;10.60;73.50
62575;DHT22;53112;45.602;11.904;2022-12-10T02:27:31;10.60;74.00
62575;DHT22;53112;45.602;11.904;2022-12-10T02:30:00;10.70;73.30
62575;DHT22;53112;45.602;11.904;2022-12-10T02:32:33;10.70;73.60
62575;DHT22;53112;45.602;11.904;2022-12-10T02:35:05;10.70;73.30
62575;DHT22;53112;45.602;11.904;2022-12-10T02:37:35;10.80;73.20
62575;DHT22;53112;45.602;11.904;2022-12-10T02:40:07;10.50;73.20
62575;DHT22;53112;45.602;11.904;2022-12-10T02:42:38;10.10;75.00
62575;DHT22;53112;45.602;11.904;2022-12-10T02:45:05;9.80;76.30
62575;DHT22;53112;45.602;11.904;2022-12-10T02:47:33;9.90;76.40
62575;DHT22;53112;45.602;11.904;2022-12-10T02:50:01;10.20;75.80
62575;DHT22;53112;45.602;11.904;2022-12-10T02:52:27;10.30;74.80
62575;DHT22;53112;45.602;11.904;2022-12-10T02:54:53;10.20;75.00
62575;DHT22;53112;45.602;11.904;2022-12-10T02:57:36;10.50;74.40
62575;DHT22;53112;45.602;11.904;2022-12-10T03:07:57;10.20;75.10
62575;DHT22;53112;45.602;11.904;2022-12-10T03:10:34;10.40;74.80
62575;DHT22;53112;45.602;11.904;2022-12-10T03:13:06;10.50;74.20
62575;DHT22;53112;45.602;11.904;2022-12-10T03:15:34;10.40;74.30
62575;DHT22;53112;45.602;11.904;2022-12-10T03:18:03;10.10;75.20
62575;DHT22;53112;45.602;11.904;2022-12-10T03:20:33;10.20;75.10
62575;DHT22;53112;45.602;11.904;2022-12-10T03:23:00;10.10;75.10
62575;DHT22;53112;45.602;11.904;2022-12-10T03:25:29;10.20;75.30
62575;DHT22;53112;45.602;11.904;2022-12-10T03:27:59;10.20;75.00
62575;DHT22;53112;45.602;11.904;2022-12-10T03:30:26;10.40;74.20
62575;DHT22;53112;45.602;11.904;2022-12-10T03:32:54;10.10;75.10
62575;DHT22;53112;45.602;11.904;2022-12-10T03:35:21;9.80;75.70
62575;DHT22;53112;45.602;11.904;2022-12-10T03:37:48;9.70;76.50
62575;DHT22;53112;45.602;11.904;2022-12-10T03:40:18;9.70;76.40
62575;DHT22;53112;45.602;11.904;2022-12-10T03:42:46;9.70;77.00
62575;DHT22;53112;45.602;11.904;2022-12-10T03:45:12;10.10;76.20
62575;DHT22;53112;45.602;11.904;2022-12-10T03:47:40;10.20;75.10
62575;DHT22;53112;45.602;11.904;2022-12-10T03:50:07;10.20;74.90
62575;DHT22;53112;45.602;11.904;2022-12-10T03:52:33;9.90;75.50
62575;DHT22;53112;45.602;11.904;2022-12-10T03:54:59;9.70;76.40
62575;DHT22;53112;45.602;11.904;2022-12-10T03:57:25;10.10;76.00
62575;DHT22;53112;45.602;11.904;2022-12-10T03:59:51;10.20;75.50
62575;DHT22;53112;45.602;11.904;2022-12-10T04:02:18;10.10;74.80
62575;DHT22;53112;45.602;11.904;2022-12-10T04:04:44;10.20;75.60
62575;DHT22;53112;45.602;11.904;2022-12-10T04:07:10;10.40;74.40
62575;DHT22;53112;45.602;11.904;2022-12-10T04:09:36;10.40;74.10
62575;DHT22;53112;45.602;11.904;2022-12-10T04:12:03;10.10;75.20
62575;DHT22;53112;45.602;11.904;2022-12-10T04:14:30;10.00;75.70
62575;DHT22;53112;45.602;11.904;2022-12-10T04:17:14;9.90;76.10
62575;DHT22;53112;45.602;11.904;2022-12-10T04:19:40;9.90;76.20
62575;DHT22;53112;45.602;11.904;2022-12-10T04:22:09;9.70;76.80
62575;DHT22;53112;45.602;11.904;2022-12-10T04:24:53;9.80;76.80
62575;DHT22;53112;45.602;11.904;2022-12-10T04:27:51;9.90;76.30
62575;DHT22;53112;45.602;11.904;2022-12-10T04:30:17;9.90;76.40
62575;DHT22;53112;45.602;11.904;2022-12-10T04:32:43;10.10;75.80
62575;DHT22;53112;45.602;11.904;2022-12-10T04:35:10;10.20;75.60
62575;DHT22;53112;45.602;11.904;2022-12-10T04:37:37;10.30;74.80
62575;DHT22;53112;45.602;11.904;2022-12-10T04:40:04;10.20;75.10
62575;DHT22;53112;45.602;11.904;2022-12-10T04:42:30;10.20;75.50
62575;DHT22;53112;45.602;11.904;2022-12-10T04:44:56;10.40;74.60
62575;DHT22;53112;45.602;11.904;2022-12-10T04:47:22;10.00;75.90
62575;DHT22;53112;45.602;11.904;2022-12-10T04:49:48;9.90;76.60
62575;DHT22;53112;45.602;11.904;2022-12-10T04:52:15;10.10;75.90
62575;DHT22;53112;45.602;11.904;2022-12-10T04:54:42;10.10;75.50
62575;DHT22;53112;45.602;11.904;2022-12-10T04:57:10;10.00;75.70
62575;DHT22;53112;45.602;11.904;2022-12-10T04:59:37;9.90;76.10
62575;DHT22;53112;45.602;11.904;2022-12-10T05:02:04;9.90;76.40
62575;DHT22;53112;45.602;11.904;2022-12-10T05:04:30;9.90;76.40
62575;DHT22;53112;45.602;11.904;2022-12-10T05:06:58;9.70;77.10
62575;DHT22;53112;45.602;11.904;2022-12-10T05:09:24;9.90;76.40
62575;DHT22;53112;45.602;11.904;2022-12-10T05:11:50;10.20;75.30
62575;DHT22;53112;45.602;11.904;2022-12-10T05:14:16;10.10;75.30
62575;DHT22;53112;45.602;11.904;2022-12-10T05:16:42;10.00;75.90
62575;DHT22;53112;45.602;11.904;2022-12-10T05:19:09;10.00;75.80
62575;DHT22;53112;45.602;11.904;2022-12-10T05:21:36;9.90;76.10
62575;DHT22;53112;45.602;11.904;2022-12-10T05:24:20;9.90;76.20
62575;DHT22;53112;45.602;11.904;2022-12-10T05:26:46;9.90;76.40
62575;DHT22;53112;45.602;11.904;2022-12-10T05:29:16;9.90;76.00
62575;DHT22;53112;45.602;11.904;2022-12-10T05:31:43;9.80;76.40
62575;DHT22;53112;45.602;11.904;2022-12-10T05:34:10;9.80;76.80
62575;DHT22;53112;45.602;11.904;2022-12-10T05:36:36;9.70;77.00
62575;DHT22;53112;45.602;11.904;2022-12-10T05:39:03;9.70;77.30
62575;DHT22;53112;45.602;11.904;2022-12-10T05:41:33;9.60;77.70
62575;DHT22;53112;45.602;11.904;2022-12-10T05:44:00;9.70;77.80
62575;DHT22;53112;45.602;11.904;2022-12-10T05:46:30;9.80;77.30
62575;DHT22;53112;45.602;11.904;2022-12-10T05:48:57;9.90;77.20
62575;DHT22;53112;45.602;11.904;2022-12-10T05:51:26;10.30;76.60
62575;DHT22;53112;45.602;11.904;2022-12-10T05:53:53;10.40;75.40
62575;DHT22;53112;45.602;11.904;2022-12-10T05:56:21;10.40;75.30
62575;DHT22;53112;45.602;11.904;2022-12-10T05:58:49;10.50;75.30
62575;DHT22;53112;45.602;11.904;2022-12-10T06:01:18;10.50;75.10
62575;DHT22;53112;45.602;11.904;2022-12-10T06:03:45;10.50;75.10
62575;DHT22;53112;45.602;11.904;2022-12-10T06:06:12;10.50;75.30
62575;DHT22;53112;45.602;11.904;2022-12-10T06:08:38;10.40;75.80
62575;DHT22;53112;45.602;11.904;2022-12-10T06:11:06;10.30;75.30
62575;DHT22;53112;45.602;11.904;2022-12-10T06:13:33;10.20;76.00
62575;DHT22;53112;45.602;11.904;2022-12-10T06:15:59;10.40;75.50
62575;DHT22;53112;45.602;11.904;2022-12-10T06:18:29;10.40;75.70
62575;DHT22;53112;45.602;11.904;2022-12-10T06:20:54;10.70;75.30
62575;DHT22;53112;45.602;11.904;2022-12-10T06:23:20;10.80;74.60
62575;DHT22;53112;45.602;11.904;2022-12-10T06:25:46;10.90;73.80
62575;DHT22;53112;45.602;11.904;2022-12-10T06:28:12;11.10;73.70
62575;DHT22;53112;45.602;11.904;2022-12-10T06:30:38;11.00;73.60
62575;DHT22;53112;45.602;11.904;2022-12-10T06:33:04;10.70;74.30
62575;DHT22;53112;45.602;11.904;2022-12-10T06:35:30;10.60;75.30
62575;DHT22;53112;45.602;11.904;2022-12-10T06:37:56;10.90;74.70
62575;DHT22;53112;45.602;11.904;2022-12-10T06:40:22;11.10;73.60
62575;DHT22;53112;45.602;11.904;2022-12-10T06:42:50;11.10;73.40
62575;DHT22;53112;45.602;11.904;2022-12-10T06:45:17;11.10;73.30
62575;DHT22;53112;45.602;11.904;2022-12-10T06:47:43;11.10;73.30
62575;DHT22;53112;45.602;11.904;2022-12-10T06:50:09;11.00;73.80
62575;DHT22;53112;45.602;11.904;2022-12-10T06:52:35;11.10;73.80
62575;DHT22;53112;45.602;11.904;2022-12-10T06:55:01;10.80;74.10
62575;DHT22;53112;45.602;11.904;2022-12-10T06:57:27;11.00;74.30
62575;DHT22;53112;45.602;11.904;2022-12-10T06:59:53;11.20;73.60
62575;DHT22;53112;45.602;11.904;2022-12-10T07:02:19;11.30;73.10
62575;DHT22;53112;45.602;11.904;2022-12-10T07:04:45;11.40;72.40
62575;DHT22;53112;45.602;11.904;2022-12-10T07:07:10;11.40;72.60
62575;DHT22;53112;45.602;11.904;2022-12-10T07:09:36;11.30;72.60
62575;DHT22;53112;45.602;11.904;2022-12-10T07:12:04;11.40;72.90
62575;DHT22;53112;45.602;11.904;2022-12-10T07:14:30;11.40;72.70
62575;DHT22;53112;45.602;11.904;2022-12-10T07:16:55;11.20;73.00
62575;DHT22;53112;45.602;11.904;2022-12-10T07:19:22;10.90;73.10
62575;DHT22;53112;45.602;11.904;2022-12-10T07:21:48;10.60;74.10
62575;DHT22;53112;45.602;11.904;2022-12-10T07:24:16;10.60;75.00
62575;DHT22;53112;45.602;11.904;2022-12-10T07:26:44;10.90;74.20
62575;DHT22;53112;45.602;11.904;2022-12-10T07:29:19;10.70;74.80
62575;DHT22;53112;45.602;11.904;2022-12-10T07:31:46;10.60;75.20
62575;DHT22;53112;45.602;11.904;2022-12-10T07:34:14;11.00;74.90
62575;DHT22;53112;45.602;11.904;2022-12-10T07:36:40;11.10;73.50
62575;DHT22;53112;45.602;11.904;2022-12-10T07:39:08;11.00;74.20
62575;DHT22;53112;45.602;11.904;2022-12-10T07:41:35;11.10;74.30
62575;DHT22;53112;45.602;11.904;2022-12-10T07:44:04;11.00;74.50
62575;DHT22;53112;45.602;11.904;2022-12-10T07:46:32;10.90;74.70
62575;DHT22;53112;45.602;11.904;2022-12-10T07:49:02;10.80;74.80
62575;DHT22;53112;45.602;11.904;2022-12-10T07:51:28;10.80;75.40
62575;DHT22;53112;45.602;11.904;2022-12-10T07:53:55;11.20;74.50
62575;DHT22;53112;45.602;11.904;2022-12-10T07:56:22;11.40;73.80
62575;DHT22;53112;45.602;11.904;2022-12-10T07:58:48;11.50;73.80
62575;DHT22;53112;45.602;11.904;2022-12-10T08:02:31;10.70;73.50
62575;DHT22;53112;45.602;11.904;2022-12-10T08:04:57;11.20;74.20
62575;DHT22;53112;45.602;11.904;2022-12-10T08:07:23;11.00;74.50
62575;DHT22;53112;45.602;11.904;2022-12-10T08:09:49;10.90;75.00
62575;DHT22;53112;45.602;11.904;2022-12-10T08:12:14;11.30;74.40
62575;DHT22;53112;45.602;11.904;2022-12-10T08:14:41;11.30;73.70
62575;DHT22;53112;45.602;11.904;2022-12-10T08:17:06;11.40;74.40
62575;DHT22;53112;45.602;11.904;2022-12-10T08:19:32;11.30;73.90
62575;DHT22;53112;45.602;11.904;2022-12-10T08:21:58;11.20;74.20
62575;DHT22;53112;45.602;11.904;2022-12-10T08:24:24;11.40;74.20
62575;DHT22;53112;45.602;11.904;2022-12-10T08:26:50;11.40;73.60
62575;DHT22;53112;45.602;11.904;2022-12-10T08:29:16;11.20;74.10
62575;DHT22;53112;45.602;11.904;2022-12-10T08:31:41;11.10;74.40
62575;DHT22;53112;45.602;11.904;2022-12-10T08:34:15;10.90;74.40
62575;DHT22;53112;45.602;11.904;2022-12-10T08:36:42;10.60;76.00
62575;DHT22;53112;45.602;11.904;2022-12-10T08:39:08;10.40;76.20
62575;DHT22;53112;45.602;11.904;2022-12-10T08:41:36;10.40;77.10
62575;DHT22;53112;45.602;11.904;2022-12-10T08:44:02;10.70;76.30
62575;DHT22;53112;45.602;11.904;2022-12-10T08:46:28;11.00;74.90
62575;DHT22;53112;45.602;11.904;2022-12-10T08:48:54;11.20;74.40
62575;DHT22;53112;45.602;11.904;2022-12-10T08:51:20;11.20;74.60
62575;DHT22;53112;45.602;11.904;2022-12-10T08:53:46;11.30;74.80
62575;DHT22;53112;45.602;11.904;2022-12-10T08:56:13;11.40;74.00
62575;DHT22;53112;45.602;11.904;2022-12-10T08:58:39;11.40;74.40
62575;DHT22;53112;45.602;11.904;2022-12-10T09:01:07;11.20;75.00
62575;DHT22;53112;45.602;11.904;2022-12-10T09:03:36;11.40;75.60
62575;DHT22;53112;45.602;11.904;2022-12-10T09:06:04;11.50;75.40
62575;DHT22;53112;45.602;11.904;2022-12-10T09:08:31;11.60;74.90
62575;DHT22;53112;45.602;11.904;2022-12-10T09:10:57;11.50;73.90
62575;DHT22;53112;45.602;11.904;2022-12-10T09:13:22;11.70;75.50
62575;DHT22;53112;45.602;11.904;2022-12-10T09:15:50;11.80;74.10
62575;DHT22;53112;45.602;11.904;2022-12-10T09:18:16;12.10;74.50
62575;DHT22;53112;45.602;11.904;2022-12-10T09:20:42;12.20;74.60
62575;DHT22;53112;45.602;11.904;2022-12-10T09:23:08;12.30;72.90
62575;DHT22;53112;45.602;11.904;2022-12-10T09:25:34;12.50;73.00
62575;DHT22;53112;45.602;11.904;2022-12-10T09:28:00;12.60;72.80
62575;DHT22;53112;45.602;11.904;2022-12-10T09:30:25;12.70;72.00
62575;DHT22;53112;45.602;11.904;2022-12-10T09:32:51;12.70;72.80
62575;DHT22;53112;45.602;11.904;2022-12-10T09:35:18;12.80;73.10
62575;DHT22;53112;45.602;11.904;2022-12-10T09:37:44;12.70;71.90
62575;DHT22;53112;45.602;11.904;2022-12-10T09:40:18;12.40;69.80
62575;DHT22;53112;45.602;11.904;2022-12-10T09:43:04;12.40;71.90
62575;DHT22;53112;45.602;11.904;2022-12-10T09:45:40;12.10;72.90
62575;DHT22;53112;45.602;11.904;2022-12-10T09:48:30;12.00;73.40
62575;DHT22;53112;45.602;11.904;2022-12-10T09:51:19;12.40;73.20
62575;DHT22;53112;45.602;11.904;2022-12-10T09:53:47;12.50;72.50
62575;DHT22;53112;45.602;11.904;2022-12-10T09:56:22;12.40;73.10
62575;DHT22;53112;45.602;11.904;2022-12-10T09:58:49;12.40;73.20
62575;DHT22;53112;45.602;11.904;2022-12-10T10:01:17;12.40;73.20
62575;DHT22;53112;45.602;11.904;2022-12-10T10:03:45;12.70;73.20
62575;DHT22;53112;45.602;11.904;2022-12-10T10:06:14;13.10;72.20
62575;DHT22;53112;45.602;11.904;2022-12-10T10:08:44;13.50;70.70
62575;DHT22;53112;45.602;11.904;2022-12-10T10:11:16;13.60;70.60
62575;DHT22;53112;45.602;11.904;2022-12-10T10:14:05;13.70;69.80
62575;DHT22;53112;45.602;11.904;2022-12-10T10:16:36;14.00;70.00
62575;DHT22;53112;45.602;11.904;2022-12-10T10:19:16;14.20;67.70
62575;DHT22;53112;45.602;11.904;2022-12-10T10:21:47;13.80;70.70
62575;DHT22;53112;45.602;11.904;2022-12-10T10:24:19;13.20;71.10
62575;DHT22;53112;45.602;11.904;2022-12-10T10:26:45;13.50;71.50
62575;DHT22;53112;45.602;11.904;2022-12-10T10:29:17;14.00;70.20
62575;DHT22;53112;45.602;11.904;2022-12-10T10:31:44;14.00;68.80
62575;DHT22;53112;45.602;11.904;2022-12-10T10:34:22;14.10;69.80
62575;DHT22;53112;45.602;11.904;2022-12-10T10:36:56;13.60;69.70
62575;DHT22;53112;45.602;11.904;2022-12-10T10:39:28;13.60;70.50
62575;DHT22;53112;45.602;11.904;2022-12-10T10:41:56;13.60;69.60
62575;DHT22;53112;45.602;11.904;2022-12-10T10:44:26;13.50;69.90
62575;DHT22;53112;45.602;11.904;2022-12-10T10:46:54;13.60;69.70
62575;DHT22;53112;45.602;11.904;2022-12-10T10:49:32;13.60;70.00
62575;DHT22;53112;45.602;11.904;2022-12-10T10:52:19;14.10;69.30
62575;DHT22;53112;45.602;11.904;2022-12-10T10:54:47;13.90;67.30
62575;DHT22;53112;45.602;11.904;2022-12-10T10:57:32;13.80;68.30
62575;DHT22;53112;45.602;11.904;2022-12-10T11:02:43;14.60;67.60
62575;DHT22;53112;45.602;11.904;2022-12-10T11:05:17;14.50;64.80
62575;DHT22;53112;45.602;11.904;2022-12-10T11:07:45;14.50;67.30
62575;DHT22;53112;45.602;11.904;2022-12-10T11:10:21;14.80;66.40
62575;DHT22;53112;45.602;11.904;2022-12-10T11:13:05;14.90;64.70
62575;DHT22;53112;45.602;11.904;2022-12-10T11:15:41;14.90;65.10
62575;DHT22;53112;45.602;11.904;2022-12-10T11:18:32;15.10;66.20
62575;DHT22;53112;45.602;11.904;2022-12-10T11:23:29;15.70;65.90
62575;DHT22;53112;45.602;11.904;2022-12-10T11:29:16;16.60;60.70
62575;DHT22;53112;45.602;11.904;2022-12-10T11:37:07;16.90;62.20
62575;DHT22;53112;45.602;11.904;2022-12-10T11:42:47;17.40;60.30
62575;DHT22;53112;45.602;11.904;2022-12-10T11:48:41;17.10;61.20
62575;DHT22;53112;45.602;11.904;2022-12-10T11:54:20;16.00;60.60
62575;DHT22;53112;45.602;11.904;2022-12-10T12:12:44;16.80;60.50
62575;DHT22;53112;45.602;11.904;2022-12-10T12:15:19;16.80;60.80
62575;DHT22;53112;45.602;11.904;2022-12-10T12:18:02;16.40;61.30
62575;DHT22;53112;45.602;11.904;2022-12-10T12:20:42;16.50;62.90
62575;DHT22;53112;45.602;11.904;2022-12-10T12:25:46;16.90;61.50
62575;DHT22;53112;45.602;11.904;2022-12-10T12:28:26;17.10;61.00
62575;DHT22;53112;45.602;11.904;2022-12-10T12:31:14;16.80;60.20
62575;DHT22;53112;45.602;11.904;2022-12-10T12:33:54;16.30;61.80
62575;DHT22;53112;45.602;11.904;2022-12-10T12:36:32;16.30;62.80
62575;DHT22;53112;45.602;11.904;2022-12-10T12:39:10;16.10;63.40
62575;DHT22;53112;45.602;11.904;2022-12-10T12:50:04;15.40;65.80
62575;DHT22;53112;45.602;11.904;2022-12-10T12:52:44;15.90;64.30
62575;DHT22;53112;45.602;11.904;2022-12-10T12:55:20;15.70;63.90
62575;DHT22;53112;45.602;11.904;2022-12-10T12:57:55;15.70;65.00
62575;DHT22;53112;45.602;11.904;2022-12-10T13:00:23;15.80;64.50
62575;DHT22;53112;45.602;11.904;2022-12-10T13:05:26;16.10;64.50
62575;DHT22;53112;45.602;11.904;2022-12-10T13:10:57;16.10;63.20
62575;DHT22;53112;45.602;11.904;2022-12-10T13:22:10;15.10;66.20
62575;DHT22;53112;45.602;11.904;2022-12-10T13:32:44;14.80;66.10
62575;DHT22;53112;45.602;11.904;2022-12-10T13:48:56;14.80;68.20
62575;DHT22;53112;45.602;11.904;2022-12-10T14:07:59;14.30;69.60
62575;DHT22;53112;45.602;11.904;2022-12-10T14:10:32;14.20;69.70
62575;DHT22;53112;45.602;11.904;2022-12-10T14:13:02;14.30;70.00
62575;DHT22;53112;45.602;11.904;2022-12-10T14:15:29;14.30;69.50
62575;DHT22;53112;45.602;11.904;2022-12-10T14:18:13;14.20;69.90
62575;DHT22;53112;45.602;11.904;2022-12-10T14:20:47;14.50;68.90
62575;DHT22;53112;45.602;11.904;2022-12-10T14:23:29;14.60;68.50
62575;DHT22;53112;45.602;11.904;2022-12-10T14:26:12;14.70;68.30
62575;DHT22;53112;45.602;11.904;2022-12-10T14:28:40;14.40;68.90
62575;DHT22;53112;45.602;11.904;2022-12-10T14:31:20;14.30;69.60
62575;DHT22;53112;45.602;11.904;2022-12-10T14:33:49;14.50;69.00
62575;DHT22;53112;45.602;11.904;2022-12-10T14:36:24;14.60;69.30
62575;DHT22;53112;45.602;11.904;2022-12-10T14:38:51;14.60;69.10
62575;DHT22;53112;45.602;11.904;2022-12-10T14:41:20;14.70;69.20
62575;DHT22;53112;45.602;11.904;2022-12-10T14:43:47;14.80;69.10
62575;DHT22;53112;45.602;11.904;2022-12-10T14:46:23;14.70;68.90
62575;DHT22;53112;45.602;11.904;2022-12-10T14:48:51;14.80;69.30
62575;DHT22;53112;45.602;11.904;2022-12-10T14:51:22;14.70;69.00
62575;DHT22;53112;45.602;11.904;2022-12-10T14:53:50;14.70;69.40
62575;DHT22;53112;45.602;11.904;2022-12-10T14:56:27;14.50;69.60
62575;DHT22;53112;45.602;11.904;2022-12-10T14:59:15;14.60;69.00
62575;DHT22;53112;45.602;11.904;2022-12-10T15:01:47;14.60;69.40
62575;DHT22;53112;45.602;11.904;2022-12-10T15:04:19;14.60;69.60
62575;DHT22;53112;45.602;11.904;2022-12-10T15:06:46;14.60;68.90
62575;DHT22;53112;45.602;11.904;2022-12-10T15:09:20;14.60;69.50
62575;DHT22;53112;45.602;11.904;2022-12-10T15:11:58;14.40;69.50
62575;DHT22;53112;45.602;11.904;2022-12-10T15:14:26;13.90;71.00
62575;DHT22;53112;45.602;11.904;2022-12-10T15:16:53;13.30;73.00
62575;DHT22;53112;45.602;11.904;2022-12-10T15:19:31;13.30;73.50
62575;DHT22;53112;45.602;11.904;2022-12-10T15:24:43;12.90;74.80
62575;DHT22;53112;45.602;11.904;2022-12-10T15:27:17;13.10;74.20
62575;DHT22;53112;45.602;11.904;2022-12-10T15:29:43;12.90;74.40
62575;DHT22;53112;45.602;11.904;2022-12-10T15:32:14;12.90;74.60
62575;DHT22;53112;45.602;11.904;2022-12-10T15:34:57;13.00;74.10
62575;DHT22;53112;45.602;11.904;2022-12-10T15:37:35;12.90;74.30
62575;DHT22;53112;45.602;11.904;2022-12-10T15:40:07;12.80;74.60
62575;DHT22;53112;45.602;11.904;2022-12-10T15:42:46;12.70;75.00
62575;DHT22;53112;45.602;11.904;2022-12-10T15:47:45;12.70;75.40
62575;DHT22;53112;45.602;11.904;2022-12-10T15:50:11;12.70;75.30
62575;DHT22;53112;45.602;11.904;2022-12-10T15:52:37;12.70;75.50
62575;DHT22;53112;45.602;11.904;2022-12-10T15:55:04;12.60;75.50
62575;DHT22;53112;45.602;11.904;2022-12-10T15:57:33;12.50;75.90
62575;DHT22;53112;45.602;11.904;2022-12-10T16:00:10;12.50;76.10
62575;DHT22;53112;45.602;11.904;2022-12-10T16:07:43;12.70;75.40
62575;DHT22;53112;45.602;11.904;2022-12-10T16:10:11;12.50;75.50
62575;DHT22;53112;45.602;11.904;2022-12-10T16:12:38;12.70;75.40
62575;DHT22;53112;45.602;11.904;2022-12-10T16:15:08;12.70;75.00
62575;DHT22;53112;45.602;11.904;2022-12-10T16:17:36;12.50;75.90
62575;DHT22;53112;45.602;11.904;2022-12-10T16:20:23;12.20;76.50
62575;DHT22;53112;45.602;11.904;2022-12-10T16:22:52;12.10;77.10
62575;DHT22;53112;45.602;11.904;2022-12-10T16:25:18;12.10;77.20
62575;DHT22;53112;45.602;11.904;2022-12-10T16:27:44;12.00;77.70
62575;DHT22;53112;45.602;11.904;2022-12-10T16:30:19;11.80;78.10
62575;DHT22;53112;45.602;11.904;2022-12-10T16:32:45;11.80;78.50
62575;DHT22;53112;45.602;11.904;2022-12-10T16:35:12;11.90;78.00
62575;DHT22;53112;45.602;11.904;2022-12-10T16:37:44;11.90;78.10
62575;DHT22;53112;45.602;11.904;2022-12-10T16:40:14;11.90;78.00
62575;DHT22;53112;45.602;11.904;2022-12-10T16:42:41;11.90;78.10
62575;DHT22;53112;45.602;11.904;2022-12-10T16:45:18;11.80;78.20
62575;DHT22;53112;45.602;11.904;2022-12-10T16:47:45;11.90;78.00
62575;DHT22;53112;45.602;11.904;2022-12-10T16:50:11;11.90;78.30
62575;DHT22;53112;45.602;11.904;2022-12-10T16:52:37;11.90;78.10
62575;DHT22;53112;45.602;11.904;2022-12-10T16:55:04;12.00;78.00
62575;DHT22;53112;45.602;11.904;2022-12-10T16:57:31;12.00;77.60
62575;DHT22;53112;45.602;11.904;2022-12-10T16:59:57;11.90;78.10
62575;DHT22;53112;45.602;11.904;2022-12-10T17:02:22;11.80;78.40
62575;DHT22;53112;45.602;11.904;2022-12-10T17:04:48;11.90;78.30
62575;DHT22;53112;45.602;11.904;2022-12-10T17:07:14;12.00;77.80
62575;DHT22;53112;45.602;11.904;2022-12-10T17:09:41;12.10;77.90
62575;DHT22;53112;45.602;11.904;2022-12-10T17:12:10;12.10;77.50
62575;DHT22;53112;45.602;11.904;2022-12-10T17:14:40;12.00;77.60
62575;DHT22;53112;45.602;11.904;2022-12-10T17:17:12;12.10;77.60
62575;DHT22;53112;45.602;11.904;2022-12-10T17:19:38;12.20;77.20
62575;DHT22;53112;45.602;11.904;2022-12-10T17:22:08;12.20;77.10
62575;DHT22;53112;45.602;11.904;2022-12-10T17:24:34;12.30;77.00
62575;DHT22;53112;45.602;11.904;2022-12-10T17:27:07;12.50;76.30
62575;DHT22;53112;45.602;11.904;2022-12-10T17:29:38;12.70;75.50
62575;DHT22;53112;45.602;11.904;2022-12-10T17:32:06;12.70;75.30
62575;DHT22;53112;45.602;11.904;2022-12-10T17:34:36;12.60;75.60
62575;DHT22;53112;45.602;11.904;2022-12-10T17:37:11;12.50;75.90
62575;DHT22;53112;45.602;11.904;2022-12-10T17:39:37;12.50;76.50
62575;DHT22;53112;45.602;11.904;2022-12-10T17:42:03;12.60;76.70
62575;DHT22;53112;45.602;11.904;2022-12-10T17:44:29;12.90;75.00
62575;DHT22;53112;45.602;11.904;2022-12-10T17:46:55;12.80;75.20